sensor_id;sensor_type;location;lat;lon;timestamp;P1;durP1;ratioP1;P2;durP2;ratioP2
9739;SDS011;4909;42.680;26.324;2023-08-24T00:01:33;463.40;;;423.70;;
9739;SDS011;4909;42.680;26.324;2023-08-24T00:04:00;475.63;;;435.63;;
9739;SDS011;4909;42.680;26.324;2023-08-24T00:06:27;472.53;;;432.40;;
9739;SDS011;4909;42.680;26.324;2023-08-24T00:08:53;457.80;;;418.07;;
9739;SDS011;4909;42.680;26.324;2023-08-24T00:11:20;465.23;;;425.40;;
9739;SDS011;4909;42.680;26.324;2023-08-24T00:13:47;461.17;;;421.37;;
9739;SDS011;4909;42.680;26.324;2023-08-24T00:16:17;454.60;;;414.47;;
9739;SDS011;4909;42.680;26.324;2023-08-24T00:18:45;478.47;;;438.00;;
9739;SDS011;4909;42.680;26.324;2023-08-24T00:21:13;483.60;;;443.47;;
9739;SDS011;4909;42.680;26.324;2023-08-24T00:23:42;482.60;;;442.13;;
9739;SDS011;4909;42.680;26.324;2023-08-24T00:26:08;467.37;;;427.40;;
9739;SDS011;4909;42.680;26.324;2023-08-24T00:28:35;477.37;;;437.07;;
9739;SDS011;4909;42.680;26.324;2023-08-24T00:31:02;468.83;;;428.93;;
9739;SDS011;4909;42.680;26.324;2023-08-24T00:33:30;476.50;;;436.83;;
9739;SDS011;4909;42.680;26.324;2023-08-24T00:35:59;492.73;;;452.40;;
9739;SDS011;4909;42.680;26.324;2023-08-24T00:38:27;483.17;;;442.93;;
9739;SDS011;4909;42.680;26.324;2023-08-24T00:40:54;480.17;;;439.87;;
9739;SDS011;4909;42.680;26.324;2023-08-24T00:43:21;471.73;;;431.90;;
9739;SDS011;4909;42.680;26.324;2023-08-24T00:45:49;474.30;;;434.17;;
9739;SDS011;4909;42.680;26.324;2023-08-24T00:48:16;477.10;;;436.90;;
9739;SDS011;4909;42.680;26.324;2023-08-24T00:50:45;479.83;;;439.73;;
9739;SDS011;4909;42.680;26.324;2023-08-24T00:53:12;463.93;;;423.57;;
9739;SDS011;4909;42.680;26.324;2023-08-24T00:55:39;491.60;;;451.10;;
9739;SDS011;4909;42.680;26.324;2023-08-24T00:58:05;487.27;;;446.93;;
9739;SDS011;4909;42.680;26.324;2023-08-24T01:00:35;465.10;;;425.13;;
9739;SDS011;4909;42.680;26.324;2023-08-24T01:03:02;485.53;;;445.27;;
9739;SDS011;4909;42.680;26.324;2023-08-24T01:05:30;475.53;;;435.67;;
9739;SDS011;4909;42.680;26.324;2023-08-24T01:07:58;458.83;;;419.17;;
9739;SDS011;4909;42.680;26.324;2023-08-24T01:10:25;476.63;;;436.10;;
9739;SDS011;4909;42.680;26.324;2023-08-24T01:12:59;468.47;;;428.67;;
9739;SDS011;4909;42.680;26.324;2023-08-24T01:15:35;452.20;;;412.57;;
9739;SDS011;4909;42.680;26.324;2023-08-24T01:18:06;475.83;;;435.90;;
9739;SDS011;4909;42.680;26.324;2023-08-24T01:20:38;460.07;;;420.17;;
9739;SDS011;4909;42.680;26.324;2023-08-24T01:23:09;471.33;;;431.17;;
9739;SDS011;4909;42.680;26.324;2023-08-24T01:25:46;453.20;;;412.97;;
9739;SDS011;4909;42.680;26.324;2023-08-24T01:28:19;444.73;;;405.10;;
9739;SDS011;4909;42.680;26.324;2023-08-24T01:30:47;451.20;;;411.30;;
9739;SDS011;4909;42.680;26.324;2023-08-24T01:33:14;460.87;;;420.87;;
9739;SDS011;4909;42.680;26.324;2023-08-24T01:35:41;462.17;;;422.20;;
9739;SDS011;4909;42.680;26.324;2023-08-24T01:38:08;460.20;;;420.30;;
9739;SDS011;4909;42.680;26.324;2023-08-24T01:40:39;464.60;;;424.50;;
9739;SDS011;4909;42.680;26.324;2023-08-24T01:43:16;463.77;;;423.73;;
9739;SDS011;4909;42.680;26.324;2023-08-24T01:45:47;454.00;;;413.90;;
9739;SDS011;4909;42.680;26.324;2023-08-24T01:48:16;452.67;;;412.70;;
9739;SDS011;4909;42.680;26.324;2023-08-24T01:50:43;451.43;;;411.57;;
9739;SDS011;4909;42.680;26.324;2023-08-24T01:53:11;456.50;;;416.60;;
9739;SDS011;4909;42.680;26.324;2023-08-24T01:55:38;448.23;;;408.43;;
9739;SDS011;4909;42.680;26.324;2023-08-24T01:58:05;445.53;;;405.70;;
9739;SDS011;4909;42.680;26.324;2023-08-24T02:00:33;446.67;;;407.10;;
9739;SDS011;4909;42.680;26.324;2023-08-24T02:03:00;442.37;;;402.50;;
9739;SDS011;4909;42.680;26.324;2023-08-24T02:05:26;450.20;;;410.27;;
9739;SDS011;4909;42.680;26.324;2023-08-24T02:07:54;455.40;;;415.53;;
9739;SDS011;4909;42.680;26.324;2023-08-24T02:10:22;449.97;;;409.73;;
9739;SDS011;4909;42.680;26.324;2023-08-24T02:12:49;453.40;;;413.77;;
9739;SDS011;4909;42.680;26.324;2023-08-24T02:15:15;450.73;;;411.13;;
9739;SDS011;4909;42.680;26.324;2023-08-24T02:17:44;456.47;;;416.67;;
9739;SDS011;4909;42.680;26.324;2023-08-24T02:20:10;450.67;;;411.07;;
9739;SDS011;4909;42.680;26.324;2023-08-24T02:22:37;449.97;;;410.30;;
9739;SDS011;4909;42.680;26.324;2023-08-24T02:25:04;465.10;;;424.67;;
9739;SDS011;4909;42.680;26.324;2023-08-24T02:27:32;465.53;;;425.77;;
9739;SDS011;4909;42.680;26.324;2023-08-24T02:29:59;461.17;;;420.90;;
9739;SDS011;4909;42.680;26.324;2023-08-24T02:32:26;450.67;;;410.97;;
9739;SDS011;4909;42.680;26.324;2023-08-24T02:34:54;472.70;;;432.80;;
9739;SDS011;4909;42.680;26.324;2023-08-24T02:37:21;454.27;;;414.03;;
9739;SDS011;4909;42.680;26.324;2023-08-24T02:39:48;455.10;;;415.33;;
9739;SDS011;4909;42.680;26.324;2023-08-24T02:42:15;448.83;;;409.10;;
9739;SDS011;4909;42.680;26.324;2023-08-24T02:44:42;434.40;;;395.17;;
9739;SDS011;4909;42.680;26.324;2023-08-24T02:47:08;455.20;;;415.53;;
9739;SDS011;4909;42.680;26.324;2023-08-24T02:49:35;456.40;;;416.40;;
9739;SDS011;4909;42.680;26.324;2023-08-24T02:52:03;458.13;;;418.40;;
9739;SDS011;4909;42.680;26.324;2023-08-24T02:54:30;455.53;;;415.73;;
9739;SDS011;4909;42.680;26.324;2023-08-24T02:56:57;467.13;;;426.93;;
9739;SDS011;4909;42.680;26.324;2023-08-24T02:59:25;464.37;;;424.47;;
9739;SDS011;4909;42.680;26.324;2023-08-24T03:01:51;452.20;;;412.30;;
9739;SDS011;4909;42.680;26.324;2023-08-24T03:04:18;463.17;;;423.37;;
9739;SDS011;4909;42.680;26.324;2023-08-24T03:06:46;445.93;;;406.43;;
9739;SDS011;4909;42.680;26.324;2023-08-24T03:09:14;452.27;;;412.70;;
9739;SDS011;4909;42.680;26.324;2023-08-24T03:11:41;458.17;;;418.90;;
9739;SDS011;4909;42.680;26.324;2023-08-24T03:14:08;454.67;;;414.80;;
9739;SDS011;4909;42.680;26.324;2023-08-24T03:16:35;448.63;;;409.23;;
9739;SDS011;4909;42.680;26.324;2023-08-24T03:19:03;452.30;;;412.77;;
9739;SDS011;4909;42.680;26.324;2023-08-24T03:21:30;457.50;;;418.07;;
9739;SDS011;4909;42.680;26.324;2023-08-24T03:23:57;449.27;;;409.77;;
9739;SDS011;4909;42.680;26.324;2023-08-24T03:26:25;456.80;;;417.40;;
9739;SDS011;4909;42.680;26.324;2023-08-24T03:28:52;438.43;;;399.43;;
9739;SDS011;4909;42.680;26.324;2023-08-24T03:31:19;451.53;;;412.07;;
9739;SDS011;4909;42.680;26.324;2023-08-24T03:33:45;461.30;;;421.70;;
9739;SDS011;4909;42.680;26.324;2023-08-24T03:36:12;452.73;;;413.53;;
9739;SDS011;4909;42.680;26.324;2023-08-24T03:38:39;458.07;;;418.10;;
9739;SDS011;4909;42.680;26.324;2023-08-24T03:41:06;437.87;;;398.73;;
9739;SDS011;4909;42.680;26.324;2023-08-24T03:43:34;444.70;;;405.53;;
9739;SDS011;4909;42.680;26.324;2023-08-24T03:46:02;469.40;;;429.43;;
9739;SDS011;4909;42.680;26.324;2023-08-24T03:48:29;468.63;;;428.73;;
9739;SDS011;4909;42.680;26.324;2023-08-24T03:50:56;444.53;;;405.23;;
9739;SDS011;4909;42.680;26.324;2023-08-24T03:53:23;464.50;;;424.47;;
9739;SDS011;4909;42.680;26.324;2023-08-24T03:55:51;471.00;;;431.00;;
9739;SDS011;4909;42.680;26.324;2023-08-24T03:58:18;461.80;;;421.67;;
9739;SDS011;4909;42.680;26.324;2023-08-24T04:00:47;456.93;;;417.30;;
9739;SDS011;4909;42.680;26.324;2023-08-24T04:03:14;455.27;;;415.57;;
9739;SDS011;4909;42.680;26.324;2023-08-24T04:05:40;462.43;;;422.13;;
9739;SDS011;4909;42.680;26.324;2023-08-24T04:08:07;471.23;;;430.80;;
9739;SDS011;4909;42.680;26.324;2023-08-24T04:10:34;456.20;;;416.40;;
9739;SDS011;4909;42.680;26.324;2023-08-24T04:13:00;453.43;;;413.57;;
9739;SDS011;4909;42.680;26.324;2023-08-24T04:15:27;465.97;;;425.93;;
9739;SDS011;4909;42.680;26.324;2023-08-24T04:17:56;459.23;;;419.10;;
9739;SDS011;4909;42.680;26.324;2023-08-24T04:20:27;470.53;;;430.13;;
9739;SDS011;4909;42.680;26.324;2023-08-24T04:22:58;481.10;;;440.70;;
9739;SDS011;4909;42.680;26.324;2023-08-24T04:25:25;472.03;;;431.83;;
9739;SDS011;4909;42.680;26.324;2023-08-24T04:27:51;472.20;;;431.83;;
9739;SDS011;4909;42.680;26.324;2023-08-24T04:30:18;466.73;;;426.37;;
9739;SDS011;4909;42.680;26.324;2023-08-24T04:32:46;472.80;;;432.87;;
9739;SDS011;4909;42.680;26.324;2023-08-24T04:35:14;467.83;;;427.13;;
9739;SDS011;4909;42.680;26.324;2023-08-24T04:37:41;470.67;;;430.43;;
9739;SDS011;4909;42.680;26.324;2023-08-24T04:40:08;480.00;;;439.40;;
9739;SDS011;4909;42.680;26.324;2023-08-24T04:42:36;473.43;;;432.70;;
9739;SDS011;4909;42.680;26.324;2023-08-24T04:45:03;487.60;;;446.33;;
9739;SDS011;4909;42.680;26.324;2023-08-24T04:47:30;464.53;;;424.30;;
9739;SDS011;4909;42.680;26.324;2023-08-24T04:49:57;487.37;;;446.77;;
9739;SDS011;4909;42.680;26.324;2023-08-24T04:52:25;474.77;;;434.30;;
9739;SDS011;4909;42.680;26.324;2023-08-24T04:54:51;484.27;;;443.83;;
9739;SDS011;4909;42.680;26.324;2023-08-24T04:57:18;475.83;;;435.60;;
9739;SDS011;4909;42.680;26.324;2023-08-24T04:59:45;491.13;;;450.17;;
9739;SDS011;4909;42.680;26.324;2023-08-24T05:02:12;488.90;;;448.57;;
9739;SDS011;4909;42.680;26.324;2023-08-24T05:04:39;489.30;;;448.90;;
9739;SDS011;4909;42.680;26.324;2023-08-24T05:07:06;503.07;;;462.20;;
9739;SDS011;4909;42.680;26.324;2023-08-24T05:09:34;507.77;;;467.17;;
9739;SDS011;4909;42.680;26.324;2023-08-24T05:12:00;495.80;;;455.30;;
9739;SDS011;4909;42.680;26.324;2023-08-24T05:14:27;481.73;;;441.60;;
9739;SDS011;4909;42.680;26.324;2023-08-24T05:16:54;488.27;;;447.73;;
9739;SDS011;4909;42.680;26.324;2023-08-24T05:19:20;467.83;;;427.80;;
9739;SDS011;4909;42.680;26.324;2023-08-24T05:21:47;483.07;;;442.37;;
9739;SDS011;4909;42.680;26.324;2023-08-24T05:24:14;452.13;;;412.07;;
9739;SDS011;4909;42.680;26.324;2023-08-24T05:26:42;450.47;;;410.33;;
9739;SDS011;4909;42.680;26.324;2023-08-24T05:29:09;451.37;;;410.87;;
9739;SDS011;4909;42.680;26.324;2023-08-24T05:31:35;447.07;;;407.17;;
9739;SDS011;4909;42.680;26.324;2023-08-24T05:34:02;448.30;;;408.47;;
9739;SDS011;4909;42.680;26.324;2023-08-24T05:36:29;453.37;;;413.67;;
9739;SDS011;4909;42.680;26.324;2023-08-24T05:38:56;448.77;;;409.20;;
9739;SDS011;4909;42.680;26.324;2023-08-24T05:41:22;455.77;;;415.73;;
9739;SDS011;4909;42.680;26.324;2023-08-24T05:43:50;459.70;;;419.93;;
9739;SDS011;4909;42.680;26.324;2023-08-24T05:46:18;443.40;;;403.83;;
9739;SDS011;4909;42.680;26.324;2023-08-24T05:48:44;449.83;;;409.70;;
9739;SDS011;4909;42.680;26.324;2023-08-24T05:51:11;459.33;;;419.37;;
9739;SDS011;4909;42.680;26.324;2023-08-24T05:53:38;476.47;;;435.53;;
9739;SDS011;4909;42.680;26.324;2023-08-24T05:56:05;470.50;;;430.73;;
9739;SDS011;4909;42.680;26.324;2023-08-24T05:58:32;453.03;;;413.40;;
9739;SDS011;4909;42.680;26.324;2023-08-24T06:01:01;443.97;;;404.77;;
9739;SDS011;4909;42.680;26.324;2023-08-24T06:03:30;454.53;;;414.87;;
9739;SDS011;4909;42.680;26.324;2023-08-24T06:06:01;463.33;;;423.20;;
9739;SDS011;4909;42.680;26.324;2023-08-24T06:08:29;460.57;;;420.60;;
9739;SDS011;4909;42.680;26.324;2023-08-24T06:10:56;478.17;;;438.50;;
9739;SDS011;4909;42.680;26.324;2023-08-24T06:13:23;472.50;;;432.70;;
9739;SDS011;4909;42.680;26.324;2023-08-24T06:15:50;471.33;;;431.83;;
9739;SDS011;4909;42.680;26.324;2023-08-24T06:18:18;476.87;;;437.03;;
9739;SDS011;4909;42.680;26.324;2023-08-24T06:20:45;477.47;;;437.90;;
9739;SDS011;4909;42.680;26.324;2023-08-24T06:23:14;488.90;;;448.50;;
9739;SDS011;4909;42.680;26.324;2023-08-24T06:25:41;499.33;;;459.13;;
9739;SDS011;4909;42.680;26.324;2023-08-24T06:28:07;515.13;;;474.67;;
9739;SDS011;4909;42.680;26.324;2023-08-24T06:30:36;498.47;;;458.10;;
9739;SDS011;4909;42.680;26.324;2023-08-24T06:33:04;498.33;;;457.83;;
9739;SDS011;4909;42.680;26.324;2023-08-24T06:35:33;501.37;;;460.53;;
9739;SDS011;4909;42.680;26.324;2023-08-24T06:38:00;491.43;;;451.57;;
9739;SDS011;4909;42.680;26.324;2023-08-24T06:40:26;520.30;;;479.43;;
9739;SDS011;4909;42.680;26.324;2023-08-24T06:42:53;494.90;;;454.93;;
9739;SDS011;4909;42.680;26.324;2023-08-24T06:45:20;498.27;;;457.90;;
9739;SDS011;4909;42.680;26.324;2023-08-24T06:47:47;506.67;;;465.83;;
9739;SDS011;4909;42.680;26.324;2023-08-24T06:50:14;523.60;;;482.60;;
9739;SDS011;4909;42.680;26.324;2023-08-24T06:52:43;516.43;;;475.77;;
9739;SDS011;4909;42.680;26.324;2023-08-24T06:55:10;517.30;;;476.60;;
9739;SDS011;4909;42.680;26.324;2023-08-24T06:57:37;531.17;;;490.30;;
9739;SDS011;4909;42.680;26.324;2023-08-24T07:00:04;533.93;;;493.20;;
9739;SDS011;4909;42.680;26.324;2023-08-24T07:02:34;539.10;;;498.00;;
9739;SDS011;4909;42.680;26.324;2023-08-24T07:05:01;537.93;;;496.70;;
9739;SDS011;4909;42.680;26.324;2023-08-24T07:07:30;529.10;;;488.40;;
9739;SDS011;4909;42.680;26.324;2023-08-24T07:09:58;531.93;;;491.17;;
9739;SDS011;4909;42.680;26.324;2023-08-24T07:12:24;525.50;;;485.27;;
9739;SDS011;4909;42.680;26.324;2023-08-24T07:14:51;526.03;;;485.47;;
9739;SDS011;4909;42.680;26.324;2023-08-24T07:17:18;531.03;;;490.33;;
9739;SDS011;4909;42.680;26.324;2023-08-24T07:19:45;540.23;;;499.50;;
9739;SDS011;4909;42.680;26.324;2023-08-24T07:22:12;531.63;;;491.20;;
9739;SDS011;4909;42.680;26.324;2023-08-24T07:24:39;538.07;;;497.17;;
9739;SDS011;4909;42.680;26.324;2023-08-24T07:27:08;546.03;;;505.33;;
9739;SDS011;4909;42.680;26.324;2023-08-24T07:29:34;536.80;;;495.60;;
9739;SDS011;4909;42.680;26.324;2023-08-24T07:32:01;536.87;;;496.20;;
9739;SDS011;4909;42.680;26.324;2023-08-24T07:34:28;543.77;;;502.73;;
9739;SDS011;4909;42.680;26.324;2023-08-24T07:36:55;558.03;;;516.83;;
9739;SDS011;4909;42.680;26.324;2023-08-24T07:39:22;543.40;;;502.40;;
9739;SDS011;4909;42.680;26.324;2023-08-24T07:41:49;550.37;;;509.37;;
9739;SDS011;4909;42.680;26.324;2023-08-24T07:44:17;560.73;;;519.90;;
9739;SDS011;4909;42.680;26.324;2023-08-24T07:46:44;561.00;;;519.80;;
9739;SDS011;4909;42.680;26.324;2023-08-24T07:49:10;580.53;;;539.40;;
9739;SDS011;4909;42.680;26.324;2023-08-24T07:51:37;585.60;;;544.30;;
9739;SDS011;4909;42.680;26.324;2023-08-24T07:54:04;588.30;;;546.77;;
9739;SDS011;4909;42.680;26.324;2023-08-24T07:56:32;589.67;;;548.17;;
9739;SDS011;4909;42.680;26.324;2023-08-24T07:58:59;600.57;;;558.87;;
9739;SDS011;4909;42.680;26.324;2023-08-24T08:01:27;601.10;;;559.73;;
9739;SDS011;4909;42.680;26.324;2023-08-24T08:03:53;616.57;;;574.20;;
9739;SDS011;4909;42.680;26.324;2023-08-24T08:06:20;609.77;;;567.60;;
9739;SDS011;4909;42.680;26.324;2023-08-24T08:08:49;610.17;;;568.53;;
9739;SDS011;4909;42.680;26.324;2023-08-24T08:11:16;619.00;;;577.03;;
9739;SDS011;4909;42.680;26.324;2023-08-24T08:13:43;631.23;;;589.17;;
9739;SDS011;4909;42.680;26.324;2023-08-24T08:16:10;623.73;;;581.47;;
9739;SDS011;4909;42.680;26.324;2023-08-24T08:18:39;617.33;;;575.73;;
9739;SDS011;4909;42.680;26.324;2023-08-24T08:21:08;606.93;;;565.33;;
9739;SDS011;4909;42.680;26.324;2023-08-24T08:23:36;625.73;;;584.10;;
9739;SDS011;4909;42.680;26.324;2023-08-24T08:26:03;636.23;;;594.10;;
9739;SDS011;4909;42.680;26.324;2023-08-24T08:28:30;621.27;;;579.47;;
9739;SDS011;4909;42.680;26.324;2023-08-24T08:30:58;656.97;;;614.20;;
9739;SDS011;4909;42.680;26.324;2023-08-24T08:33:25;640.07;;;598.27;;
9739;SDS011;4909;42.680;26.324;2023-08-24T08:35:53;642.47;;;600.47;;
9739;SDS011;4909;42.680;26.324;2023-08-24T08:38:20;648.50;;;606.00;;
9739;SDS011;4909;42.680;26.324;2023-08-24T08:40:51;633.53;;;591.80;;
9739;SDS011;4909;42.680;26.324;2023-08-24T08:43:19;651.27;;;609.23;;
9739;SDS011;4909;42.680;26.324;2023-08-24T08:45:48;659.30;;;617.03;;
9739;SDS011;4909;42.680;26.324;2023-08-24T08:48:15;653.07;;;611.07;;
9739;SDS011;4909;42.680;26.324;2023-08-24T08:50:42;650.27;;;608.07;;
9739;SDS011;4909;42.680;26.324;2023-08-24T08:53:10;641.53;;;599.93;;
9739;SDS011;4909;42.680;26.324;2023-08-24T08:55:37;668.17;;;625.63;;
9739;SDS011;4909;42.680;26.324;2023-08-24T08:58:05;659.10;;;616.70;;
9739;SDS011;4909;42.680;26.324;2023-08-24T09:00:32;656.47;;;614.53;;
9739;SDS011;4909;42.680;26.324;2023-08-24T09:02:59;671.00;;;627.67;;
9739;SDS011;4909;42.680;26.324;2023-08-24T09:05:28;665.97;;;623.63;;
9739;SDS011;4909;42.680;26.324;2023-08-24T09:07:55;671.87;;;629.47;;
9739;SDS011;4909;42.680;26.324;2023-08-24T09:10:26;673.23;;;630.53;;
9739;SDS011;4909;42.680;26.324;2023-08-24T09:12:52;668.43;;;626.03;;
9739;SDS011;4909;42.680;26.324;2023-08-24T09:15:23;669.27;;;627.00;;
9739;SDS011;4909;42.680;26.324;2023-08-24T09:17:51;681.23;;;638.33;;
9739;SDS011;4909;42.680;26.324;2023-08-24T09:20:19;670.13;;;627.77;;
9739;SDS011;4909;42.680;26.324;2023-08-24T09:22:46;673.97;;;631.50;;
9739;SDS011;4909;42.680;26.324;2023-08-24T09:25:13;702.53;;;659.77;;
9739;SDS011;4909;42.680;26.324;2023-08-24T09:27:41;685.37;;;643.23;;
9739;SDS011;4909;42.680;26.324;2023-08-24T09:30:08;675.07;;;632.63;;
9739;SDS011;4909;42.680;26.324;2023-08-24T09:32:36;679.87;;;637.17;;
9739;SDS011;4909;42.680;26.324;2023-08-24T09:35:03;687.67;;;645.13;;
9739;SDS011;4909;42.680;26.324;2023-08-24T09:37:34;698.23;;;655.50;;
9739;SDS011;4909;42.680;26.324;2023-08-24T09:40:01;706.53;;;663.37;;
9739;SDS011;4909;42.680;26.324;2023-08-24T09:42:36;683.67;;;641.27;;
9739;SDS011;4909;42.680;26.324;2023-08-24T09:45:06;688.00;;;645.10;;
9739;SDS011;4909;42.680;26.324;2023-08-24T09:47:35;691.97;;;649.17;;
9739;SDS011;4909;42.680;26.324;2023-08-24T09:50:02;700.90;;;657.83;;
9739;SDS011;4909;42.680;26.324;2023-08-24T09:52:31;702.17;;;659.43;;
9739;SDS011;4909;42.680;26.324;2023-08-24T09:54:59;697.97;;;655.47;;
9739;SDS011;4909;42.680;26.324;2023-08-24T09:57:31;721.77;;;678.57;;
9739;SDS011;4909;42.680;26.324;2023-08-24T10:00:03;706.47;;;664.00;;
9739;SDS011;4909;42.680;26.324;2023-08-24T10:02:37;720.77;;;677.50;;
9739;SDS011;4909;42.680;26.324;2023-08-24T10:05:09;703.83;;;661.13;;
9739;SDS011;4909;42.680;26.324;2023-08-24T10:07:37;728.40;;;685.20;;
9739;SDS011;4909;42.680;26.324;2023-08-24T10:10:07;726.67;;;683.70;;
9739;SDS011;4909;42.680;26.324;2023-08-24T10:12:39;722.67;;;679.57;;
9739;SDS011;4909;42.680;26.324;2023-08-24T10:15:11;721.30;;;678.30;;
9739;SDS011;4909;42.680;26.324;2023-08-24T10:17:38;728.93;;;686.07;;
9739;SDS011;4909;42.680;26.324;2023-08-24T10:20:06;710.17;;;666.90;;
9739;SDS011;4909;42.680;26.324;2023-08-24T10:22:36;697.30;;;655.00;;
9739;SDS011;4909;42.680;26.324;2023-08-24T10:25:05;689.80;;;647.70;;
9739;SDS011;4909;42.680;26.324;2023-08-24T10:27:35;697.87;;;655.20;;
9739;SDS011;4909;42.680;26.324;2023-08-24T10:30:08;697.80;;;655.47;;
9739;SDS011;4909;42.680;26.324;2023-08-24T10:32:39;704.97;;;662.17;;
9739;SDS011;4909;42.680;26.324;2023-08-24T10:35:07;699.97;;;657.27;;
9739;SDS011;4909;42.680;26.324;2023-08-24T10:37:34;714.10;;;671.37;;
9739;SDS011;4909;42.680;26.324;2023-08-24T10:40:01;713.47;;;670.73;;
9739;SDS011;4909;42.680;26.324;2023-08-24T10:42:28;713.30;;;670.27;;
9739;SDS011;4909;42.680;26.324;2023-08-24T10:45:09;707.97;;;665.10;;
9739;SDS011;4909;42.680;26.324;2023-08-24T10:47:44;716.07;;;673.13;;
9739;SDS011;4909;42.680;26.324;2023-08-24T10:50:12;688.83;;;646.63;;
9739;SDS011;4909;42.680;26.324;2023-08-24T10:52:41;727.47;;;684.20;;
9739;SDS011;4909;42.680;26.324;2023-08-24T10:55:21;708.90;;;665.87;;
9739;SDS011;4909;42.680;26.324;2023-08-24T10:57:55;696.13;;;653.53;;
9739;SDS011;4909;42.680;26.324;2023-08-24T11:00:24;710.23;;;667.30;;
9739;SDS011;4909;42.680;26.324;2023-08-24T11:02:54;700.63;;;657.93;;
9739;SDS011;4909;42.680;26.324;2023-08-24T11:05:22;709.17;;;666.27;;
9739;SDS011;4909;42.680;26.324;2023-08-24T11:07:53;689.07;;;646.80;;
9739;SDS011;4909;42.680;26.324;2023-08-24T11:10:22;689.63;;;646.93;;
9739;SDS011;4909;42.680;26.324;2023-08-24T11:13:11;680.93;;;638.33;;
9739;SDS011;4909;42.680;26.324;2023-08-24T11:15:39;658.17;;;616.17;;
9739;SDS011;4909;42.680;26.324;2023-08-24T11:20:56;655.10;;;612.97;;
9739;SDS011;4909;42.680;26.324;2023-08-24T11:23:27;626.97;;;585.07;;
9739;SDS011;4909;42.680;26.324;2023-08-24T11:25:54;621.67;;;580.07;;
9739;SDS011;4909;42.680;26.324;2023-08-24T11:28:23;609.57;;;567.90;;
9739;SDS011;4909;42.680;26.324;2023-08-24T11:30:51;595.43;;;554.07;;
9739;SDS011;4909;42.680;26.324;2023-08-24T11:33:26;615.57;;;573.23;;
9739;SDS011;4909;42.680;26.324;2023-08-24T11:35:55;588.67;;;547.13;;
9739;SDS011;4909;42.680;26.324;2023-08-24T11:38:23;573.40;;;531.90;;
9739;SDS011;4909;42.680;26.324;2023-08-24T11:40:50;558.87;;;517.80;;
9739;SDS011;4909;42.680;26.324;2023-08-24T11:43:21;564.53;;;523.03;;
9739;SDS011;4909;42.680;26.324;2023-08-24T11:45:50;547.77;;;506.63;;
9739;SDS011;4909;42.680;26.324;2023-08-24T11:48:17;564.53;;;522.93;;
9739;SDS011;4909;42.680;26.324;2023-08-24T11:50:44;554.63;;;512.87;;
9739;SDS011;4909;42.680;26.324;2023-08-24T11:53:15;565.10;;;523.33;;
9739;SDS011;4909;42.680;26.324;2023-08-24T11:55:43;540.87;;;499.67;;
9739;SDS011;4909;42.680;26.324;2023-08-24T11:58:15;560.97;;;518.97;;
9739;SDS011;4909;42.680;26.324;2023-08-24T12:00:42;533.40;;;492.27;;
9739;SDS011;4909;42.680;26.324;2023-08-24T12:03:11;520.93;;;479.80;;
9739;SDS011;4909;42.680;26.324;2023-08-24T12:05:38;544.30;;;502.60;;
9739;SDS011;4909;42.680;26.324;2023-08-24T12:08:05;537.43;;;496.33;;
9739;SDS011;4909;42.680;26.324;2023-08-24T12:10:33;532.23;;;491.13;;
9739;SDS011;4909;42.680;26.324;2023-08-24T12:13:01;545.57;;;504.20;;
9739;SDS011;4909;42.680;26.324;2023-08-24T12:15:30;528.60;;;487.33;;
9739;SDS011;4909;42.680;26.324;2023-08-24T12:17:57;543.53;;;501.97;;
9739;SDS011;4909;42.680;26.324;2023-08-24T12:20:24;548.83;;;507.33;;
9739;SDS011;4909;42.680;26.324;2023-08-24T12:22:51;550.23;;;509.00;;
9739;SDS011;4909;42.680;26.324;2023-08-24T12:25:18;537.97;;;496.33;;
9739;SDS011;4909;42.680;26.324;2023-08-24T12:27:50;538.97;;;497.67;;
9739;SDS011;4909;42.680;26.324;2023-08-24T12:30:18;551.43;;;510.27;;
9739;SDS011;4909;42.680;26.324;2023-08-24T12:32:45;550.57;;;509.27;;
9739;SDS011;4909;42.680;26.324;2023-08-24T12:35:15;557.07;;;515.30;;
9739;SDS011;4909;42.680;26.324;2023-08-24T12:37:42;552.80;;;511.47;;
9739;SDS011;4909;42.680;26.324;2023-08-24T12:40:09;549.93;;;508.73;;
9739;SDS011;4909;42.680;26.324;2023-08-24T12:42:36;552.00;;;510.40;;
9739;SDS011;4909;42.680;26.324;2023-08-24T12:45:06;537.03;;;496.07;;
9739;SDS011;4909;42.680;26.324;2023-08-24T12:47:33;562.70;;;521.07;;
9739;SDS011;4909;42.680;26.324;2023-08-24T12:50:03;563.83;;;522.53;;
9739;SDS011;4909;42.680;26.324;2023-08-24T12:52:31;575.53;;;533.67;;
9739;SDS011;4909;42.680;26.324;2023-08-24T12:54:59;574.17;;;532.57;;
9739;SDS011;4909;42.680;26.324;2023-08-24T12:57:26;577.93;;;536.17;;
9739;SDS011;4909;42.680;26.324;2023-08-24T12:59:52;569.77;;;527.97;;
9739;SDS011;4909;42.680;26.324;2023-08-24T13:02:21;578.53;;;536.37;;
9739;SDS011;4909;42.680;26.324;2023-08-24T13:04:48;590.37;;;548.27;;
9739;SDS011;4909;42.680;26.324;2023-08-24T13:07:14;579.23;;;537.43;;
9739;SDS011;4909;42.680;26.324;2023-08-24T13:09:41;580.27;;;538.47;;
9739;SDS011;4909;42.680;26.324;2023-08-24T13:12:09;580.63;;;539.13;;
9739;SDS011;4909;42.680;26.324;2023-08-24T13:14:36;586.73;;;545.00;;
9739;SDS011;4909;42.680;26.324;2023-08-24T13:17:02;609.20;;;566.87;;
9739;SDS011;4909;42.680;26.324;2023-08-24T13:19:31;609.93;;;568.07;;
9739;SDS011;4909;42.680;26.324;2023-08-24T13:21:57;616.97;;;574.87;;
9739;SDS011;4909;42.680;26.324;2023-08-24T13:24:24;619.73;;;577.33;;
9739;SDS011;4909;42.680;26.324;2023-08-24T13:26:51;616.20;;;574.20;;
9739;SDS011;4909;42.680;26.324;2023-08-24T13:29:18;633.27;;;590.20;;
9739;SDS011;4909;42.680;26.324;2023-08-24T13:31:44;614.90;;;572.73;;
9739;SDS011;4909;42.680;26.324;2023-08-24T13:34:11;625.83;;;583.33;;
9739;SDS011;4909;42.680;26.324;2023-08-24T13:36:39;636.63;;;593.93;;
9739;SDS011;4909;42.680;26.324;2023-08-24T13:39:06;633.73;;;590.63;;
9739;SDS011;4909;42.680;26.324;2023-08-24T13:41:32;635.70;;;592.77;;
9739;SDS011;4909;42.680;26.324;2023-08-24T13:43:59;637.17;;;594.53;;
9739;SDS011;4909;42.680;26.324;2023-08-24T13:46:26;626.00;;;583.80;;
9739;SDS011;4909;42.680;26.324;2023-08-24T13:48:53;649.57;;;606.97;;
9739;SDS011;4909;42.680;26.324;2023-08-24T13:51:19;635.87;;;593.30;;
9739;SDS011;4909;42.680;26.324;2023-08-24T13:53:48;636.20;;;593.60;;
9739;SDS011;4909;42.680;26.324;2023-08-24T13:56:15;641.33;;;598.37;;
9739;SDS011;4909;42.680;26.324;2023-08-24T13:58:42;635.27;;;592.57;;
9739;SDS011;4909;42.680;26.324;2023-08-24T14:01:09;611.30;;;568.37;;
9739;SDS011;4909;42.680;26.324;2023-08-24T14:03:37;597.37;;;555.33;;
9739;SDS011;4909;42.680;26.324;2023-08-24T14:06:04;591.70;;;549.60;;
9739;SDS011;4909;42.680;26.324;2023-08-24T14:08:31;598.80;;;556.47;;
9739;SDS011;4909;42.680;26.324;2023-08-24T14:10:59;587.27;;;545.23;;
9739;SDS011;4909;42.680;26.324;2023-08-24T14:13:26;608.53;;;566.47;;
9739;SDS011;4909;42.680;26.324;2023-08-24T14:15:53;571.53;;;529.67;;